Time;durP1;ratioP1;P1;durP2;ratioP2;P2;SDS_P1;SDS_P2;PMS_P1;PMS_P2;Temp;Humidity;BMP_temperature;BMP_pressure;BME280_temperature;BME280_humidity;BME280_pressure;Samples;Min_cycle;Max_cycle;Signal;HPM_P1;HPM_P2
2023/08/07 00:00:05;;;;;;;5.93;2.10;;;;;;;;;;5048045;28;20261;-72
2023/08/07 00:02:32;;;;;;;5.40;2.00;;;;;;;;;;5048208;28;20216;-72
2023/08/07 00:05:00;;;;;;;5.33;1.90;;;;;;;;;;5052218;28;20301;-71
2023/08/07 00:07:27;;;;;;;7.03;2.00;;;;;;;;;;5065541;28;20213;-72
2023/08/07 00:09:55;;;;;;;5.50;1.70;;;;;;;;;;5066467;28;20207;-72
2023/08/07 00:12:22;;;;;;;5.43;1.83;;;;;;;;;;5066171;28;20206;-72
2023/08/07 00:14:50;;;;;;;5.80;2.10;;;;;;;;;;5059868;28;20211;-71
2023/08/07 00:17:17;;;;;;;5.97;2.27;;;;;;;;;;5051535;28;20227;-72
2023/08/07 00:19:44;;;;;;;6.70;2.03;;;;;;;;;;5052132;28;20320;-71
2023/08/07 00:22:13;;;;;;;6.97;2.00;;;;;;;;;;5063261;28;20224;-72
2023/08/07 00:24:40;;;;;;;5.93;1.90;;;;;;;;;;5065318;28;20302;-71
2023/08/07 00:27:09;;;;;;;4.40;2.00;;;;;;;;;;5050868;28;20207;-72
2023/08/07 00:29:37;;;;;;;3.57;1.50;;;;;;;;;;5050401;28;20275;-71
2023/08/07 00:32:04;;;;;;;5.87;1.90;;;;;;;;;;5051045;28;20221;-72
2023/08/07 00:34:31;;;;;;;4.80;1.87;;;;;;;;;;5051311;28;20216;-71
2023/08/07 00:36:58;;;;;;;6.77;1.93;;;;;;;;;;5051084;28;20218;-72
2023/08/07 00:39:27;;;;;;;5.30;2.10;;;;;;;;;;5050916;28;20220;-72
2023/08/07 00:41:54;;;;;;;5.93;1.97;;;;;;;;;;5050311;28;20211;-71
2023/08/07 00:44:23;;;;;;;7.53;2.23;;;;;;;;;;5051211;28;20214;-71
2023/08/07 00:46:50;;;;;;;6.47;1.90;;;;;;;;;;5057598;28;20407;-72
2023/08/07 00:49:17;;;;;;;5.33;2.20;;;;;;;;;;5068569;28;20213;-72
2023/08/07 00:51:45;;;;;;;5.13;1.90;;;;;;;;;;5068960;28;20276;-72
2023/08/07 00:54:14;;;;;;;4.53;2.10;;;;;;;;;;5047283;28;20207;-71
2023/08/07 00:56:43;;;;;;;4.57;2.03;;;;;;;;;;5062102;28;20601;-72
2023/08/07 00:59:10;;;;;;;4.20;2.10;;;;;;;;;;5050779;28;20250;-72
2023/08/07 01:01:37;;;;;;;4.60;2.10;;;;;;;;;;5050969;28;20208;-71
2023/08/07 01:04:05;;;;;;;7.27;2.13;;;;;;;;;;5054305;28;20226;-71
2023/08/07 01:06:32;;;;;;;8.57;2.47;;;;;;;;;;5054193;28;20203;-72
2023/08/07 01:08:59;;;;;;;7.57;2.57;;;;;;;;;;5054258;28;20210;-72
2023/08/07 01:11:34;;;;;;;4.63;2.00;;;;;;;;;;5054427;28;20207;-71
2023/08/07 01:14:08;;;;;;;5.47;1.93;;;;;;;;;;5065906;28;20217;-71
2023/08/07 01:16:37;;;;;;;8.23;2.27;;;;;;;;;;5058988;28;20214;-71
2023/08/07 01:19:06;;;;;;;5.90;2.20;;;;;;;;;;5054135;28;20231;-71
2023/08/07 01:21:34;;;;;;;7.10;2.20;;;;;;;;;;5053695;28;20219;-71
2023/08/07 01:24:02;;;;;;;8.00;2.30;;;;;;;;;;5054074;28;20221;-72
2023/08/07 01:26:30;;;;;;;7.20;2.20;;;;;;;;;;5050562;28;20242;-72
2023/08/07 01:29:03;;;;;;;5.83;2.33;;;;;;;;;;5050982;28;20207;-71
2023/08/07 01:31:32;;;;;;;10.27;2.47;;;;;;;;;;5051232;28;20239;-72
2023/08/07 01:34:00;;;;;;;6.03;2.57;;;;;;;;;;5053222;28;20211;-72
2023/08/07 01:36:29;;;;;;;4.93;1.90;;;;;;;;;;5054798;28;20211;-71
2023/08/07 01:38:57;;;;;;;5.07;2.20;;;;;;;;;;5054441;28;20223;-71
2023/08/07 01:41:26;;;;;;;4.70;2.00;;;;;;;;;;5053826;28;20206;-71
2023/08/07 01:43:53;;;;;;;8.87;2.50;;;;;;;;;;5057665;28;20211;-72
2023/08/07 01:46:20;;;;;;;4.63;2.23;;;;;;;;;;5053222;28;20203;-70
2023/08/07 01:48:47;;;;;;;7.57;2.20;;;;;;;;;;5053077;28;20207;-72
2023/08/07 01:51:15;;;;;;;7.67;2.30;;;;;;;;;;5053148;28;20211;-71
2023/08/07 01:53:42;;;;;;;7.13;2.23;;;;;;;;;;5053475;28;20218;-72
2023/08/07 01:56:09;;;;;;;7.87;2.20;;;;;;;;;;5053288;28;20239;-71
2023/08/07 01:58:37;;;;;;;7.43;2.57;;;;;;;;;;5052621;28;20222;-71
2023/08/07 02:01:05;;;;;;;6.67;2.30;;;;;;;;;;5056254;28;20221;-72
2023/08/07 02:03:32;;;;;;;7.70;2.30;;;;;;;;;;5055593;28;20211;-71
2023/08/07 02:05:59;;;;;;;3.93;2.13;;;;;;;;;;5053325;28;20211;-71
2023/08/07 02:08:26;;;;;;;5.30;2.17;;;;;;;;;;5052401;28;20784;-71
2023/08/07 02:10:53;;;;;;;4.77;2.10;;;;;;;;;;5053002;28;20207;-71
2023/08/07 02:13:20;;;;;;;7.30;2.33;;;;;;;;;;5053140;28;20212;-71
2023/08/07 02:15:49;;;;;;;6.27;2.47;;;;;;;;;;5055447;28;20211;-72
2023/08/07 02:18:16;;;;;;;6.37;2.70;;;;;;;;;;5052448;28;20436;-72
2023/08/07 02:20:43;;;;;;;5.47;2.40;;;;;;;;;;5052328;28;20234;-72
2023/08/07 02:23:10;;;;;;;5.87;2.47;;;;;;;;;;5052954;28;20214;-71
2023/08/07 02:25:37;;;;;;;8.00;2.40;;;;;;;;;;5052758;28;20217;-72
2023/08/07 02:28:05;;;;;;;4.13;1.77;;;;;;;;;;5054564;28;20202;-72
2023/08/07 02:30:32;;;;;;;8.20;2.20;;;;;;;;;;5052436;28;20222;-71
2023/08/07 02:33:00;;;;;;;2.87;2.00;;;;;;;;;;5053056;28;20229;-72
2023/08/07 02:35:28;;;;;;;7.10;1.93;;;;;;;;;;5052648;28;20207;-72
2023/08/07 02:37:55;;;;;;;4.53;1.93;;;;;;;;;;5052031;28;20243;-71
2023/08/07 02:40:22;;;;;;;6.00;2.30;;;;;;;;;;5055634;28;20211;-70
2023/08/07 02:42:49;;;;;;;4.53;1.83;;;;;;;;;;5055689;28;20222;-72
2023/08/07 02:45:16;;;;;;;6.00;2.10;;;;;;;;;;5056390;28;20218;-71
2023/08/07 02:47:43;;;;;;;4.40;1.93;;;;;;;;;;5057001;28;20218;-72
2023/08/07 02:50:12;;;;;;;7.03;2.40;;;;;;;;;;5057109;28;20214;-72
2023/08/07 02:52:39;;;;;;;4.40;2.10;;;;;;;;;;5057266;28;20207;-71
2023/08/07 02:55:06;;;;;;;2.60;2.00;;;;;;;;;;5055345;28;20199;-71
2023/08/07 02:57:34;;;;;;;5.83;2.13;;;;;;;;;;5053173;28;20214;-72
2023/08/07 03:00:01;;;;;;;6.30;2.20;;;;;;;;;;5059935;28;20207;-72
2023/08/07 03:02:28;;;;;;;7.53;2.20;;;;;;;;;;5058884;28;20216;-71
2023/08/07 03:04:55;;;;;;;5.60;2.13;;;;;;;;;;5060284;28;20237;-73
2023/08/07 03:07:24;;;;;;;8.60;2.40;;;;;;;;;;5060446;28;20204;-71
2023/08/07 03:09:51;;;;;;;5.37;2.00;;;;;;;;;;5059960;28;20203;-72
2023/08/07 03:12:18;;;;;;;3.57;1.90;;;;;;;;;;5056352;28;20214;-72
2023/08/07 03:14:45;;;;;;;8.53;2.10;;;;;;;;;;5060950;28;20212;-72
2023/08/07 03:17:12;;;;;;;7.00;2.40;;;;;;;;;;5059918;28;20623;-72
2023/08/07 03:19:41;;;;;;;4.07;1.97;;;;;;;;;;5060851;28;20226;-71
2023/08/07 03:22:09;;;;;;;2.87;1.70;;;;;;;;;;5061347;28;20209;-72
2023/08/07 03:24:37;;;;;;;3.00;1.70;;;;;;;;;;5060783;28;20202;-71
2023/08/07 03:27:05;;;;;;;5.13;1.80;;;;;;;;;;5062040;28;20213;-71
2023/08/07 03:29:32;;;;;;;8.13;1.90;;;;;;;;;;5056833;28;20198;-71
2023/08/07 03:31:59;;;;;;;3.10;1.90;;;;;;;;;;5051573;28;20217;-72
2023/08/07 03:34:26;;;;;;;5.90;2.33;;;;;;;;;;5049506;28;20211;-72
2023/08/07 03:36:53;;;;;;;5.23;2.20;;;;;;;;;;5049372;28;20208;-72
2023/08/07 03:39:20;;;;;;;4.80;1.93;;;;;;;;;;5050950;28;20238;-72
2023/08/07 03:41:49;;;;;;;3.90;1.90;;;;;;;;;;5058643;28;20293;-71
2023/08/07 03:44:16;;;;;;;6.60;2.40;;;;;;;;;;5061870;28;20211;-72
2023/08/07 03:46:43;;;;;;;3.63;2.00;;;;;;;;;;5051229;28;20207;-71
2023/08/07 03:49:10;;;;;;;7.73;2.20;;;;;;;;;;5059211;28;20202;-71
2023/08/07 03:51:37;;;;;;;3.00;1.87;;;;;;;;;;5053907;28;20207;-71
2023/08/07 03:54:05;;;;;;;4.67;2.30;;;;;;;;;;5052362;28;20207;-72
2023/08/07 03:56:36;;;;;;;5.67;2.00;;;;;;;;;;5063073;28;20241;-72
2023/08/07 03:59:04;;;;;;;5.67;1.90;;;;;;;;;;5051599;28;20231;-72
2023/08/07 04:01:31;;;;;;;4.70;2.20;;;;;;;;;;5063541;28;20243;-71
2023/08/07 04:03:58;;;;;;;4.07;2.27;;;;;;;;;;5063533;28;20215;-71
2023/08/07 04:06:26;;;;;;;4.93;2.03;;;;;;;;;;5063511;28;20225;-72
2023/08/07 04:08:54;;;;;;;4.07;2.10;;;;;;;;;;5064074;28;20203;-71
2023/08/07 04:11:21;;;;;;;6.70;2.30;;;;;;;;;;5063326;28;20209;-74
2023/08/07 04:13:48;;;;;;;3.80;2.13;;;;;;;;;;5064586;28;20207;-71
2023/08/07 04:16:16;;;;;;;4.30;1.93;;;;;;;;;;5062843;28;20211;-71
2023/08/07 04:18:44;;;;;;;6.27;2.13;;;;;;;;;;5063685;28;20229;-71
2023/08/07 04:21:11;;;;;;;3.60;2.10;;;;;;;;;;5062917;28;20207;-71
2023/08/07 04:23:38;;;;;;;5.00;2.27;;;;;;;;;;5065668;28;20207;-72
2023/08/07 04:26:05;;;;;;;4.10;2.10;;;;;;;;;;5065815;28;20206;-72
2023/08/07 04:28:32;;;;;;;6.07;2.27;;;;;;;;;;5056597;28;20196;-71
2023/08/07 04:31:00;;;;;;;4.53;2.00;;;;;;;;;;5051322;28;20211;-71
2023/08/07 04:33:28;;;;;;;7.00;2.50;;;;;;;;;;5054755;28;20211;-71
2023/08/07 04:35:55;;;;;;;3.83;2.10;;;;;;;;;;5058912;28;20211;-71
2023/08/07 04:38:22;;;;;;;5.57;1.90;;;;;;;;;;5052164;28;20207;-72
2023/08/07 04:40:50;;;;;;;4.73;2.00;;;;;;;;;;5054804;28;20214;-71
2023/08/07 04:43:19;;;;;;;6.33;2.33;;;;;;;;;;5061125;28;20211;-71
2023/08/07 04:45:46;;;;;;;5.70;2.20;;;;;;;;;;5068073;28;20329;-72
2023/08/07 04:48:13;;;;;;;6.33;2.30;;;;;;;;;;5071163;28;20215;-72
2023/08/07 04:50:42;;;;;;;8.10;2.20;;;;;;;;;;5060725;28;20212;-72
2023/08/07 04:53:09;;;;;;;6.07;2.20;;;;;;;;;;5054290;28;20298;-71
2023/08/07 04:55:36;;;;;;;3.90;2.00;;;;;;;;;;5066496;28;20238;-71
2023/08/07 04:58:04;;;;;;;5.40;2.00;;;;;;;;;;5071505;28;20214;-71
2023/08/07 05:00:31;;;;;;;5.40;2.17;;;;;;;;;;5061659;28;20223;-72
2023/08/07 05:02:59;;;;;;;4.77;2.30;;;;;;;;;;5071551;28;20214;-71
2023/08/07 05:05:26;;;;;;;3.47;2.03;;;;;;;;;;5071296;28;20216;-72
2023/08/07 05:07:55;;;;;;;5.53;2.20;;;;;;;;;;5071760;28;20206;-71
2023/08/07 05:10:23;;;;;;;5.37;2.10;;;;;;;;;;5069444;28;20250;-72
2023/08/07 05:12:54;;;;;;;4.40;2.20;;;;;;;;;;5053680;28;20211;-71
2023/08/07 05:15:22;;;;;;;7.67;2.13;;;;;;;;;;5053899;28;20230;-71
2023/08/07 05:17:49;;;;;;;2.70;1.87;;;;;;;;;;5057178;28;20210;-72
2023/08/07 05:20:16;;;;;;;5.67;2.03;;;;;;;;;;5072402;28;20237;-72
2023/08/07 05:22:43;;;;;;;3.37;1.97;;;;;;;;;;5054292;28;20211;-72
2023/08/07 05:25:15;;;;;;;6.23;2.10;;;;;;;;;;5053902;28;20207;-71
2023/08/07 05:27:42;;;;;;;3.17;2.00;;;;;;;;;;5056760;28;20468;-72
2023/08/07 05:30:10;;;;;;;3.70;2.10;;;;;;;;;;5052614;28;20200;-72
2023/08/07 05:32:37;;;;;;;2.20;2.00;;;;;;;;;;5050265;28;20203;-70
2023/08/07 05:35:05;;;;;;;4.43;2.30;;;;;;;;;;5069638;28;20207;-72
2023/08/07 05:37:32;;;;;;;4.67;2.27;;;;;;;;;;5053790;28;20294;-71
2023/08/07 05:39:59;;;;;;;4.00;1.63;;;;;;;;;;5053169;28;20301;-72
2023/08/07 05:42:28;;;;;;;7.30;2.10;;;;;;;;;;5053148;28;20207;-72
2023/08/07 05:44:55;;;;;;;4.70;2.00;;;;;;;;;;5052924;28;20214;-73
2023/08/07 05:47:22;;;;;;;5.60;2.17;;;;;;;;;;5053663;28;20213;-72
2023/08/07 05:49:50;;;;;;;3.90;2.03;;;;;;;;;;5053416;28;20204;-72
2023/08/07 05:52:17;;;;;;;3.70;1.97;;;;;;;;;;5053279;28;20246;-71
2023/08/07 05:54:44;;;;;;;4.27;1.80;;;;;;;;;;5052971;28;20230;-73
2023/08/07 05:57:11;;;;;;;4.17;2.00;;;;;;;;;;5053095;28;20231;-73
2023/08/07 05:59:40;;;;;;;4.43;2.20;;;;;;;;;;5054302;28;20235;-72
2023/08/07 06:02:07;;;;;;;3.17;1.90;;;;;;;;;;5051536;28;20219;-72
2023/08/07 06:04:36;;;;;;;4.23;2.00;;;;;;;;;;5053042;28;20203;-73
2023/08/07 06:07:03;;;;;;;4.13;2.03;;;;;;;;;;5052660;28;20204;-72
2023/08/07 06:09:30;;;;;;;3.87;1.87;;;;;;;;;;5053277;28;20213;-72
2023/08/07 06:11:57;;;;;;;2.70;1.57;;;;;;;;;;5053339;28;20207;-67
2023/08/07 06:14:25;;;;;;;3.30;1.60;;;;;;;;;;5054143;28;20213;-67
2023/08/07 06:16:54;;;;;;;2.53;1.67;;;;;;;;;;5056941;28;20211;-67
2023/08/07 06:19:22;;;;;;;2.83;1.57;;;;;;;;;;5052656;28;20228;-67
2023/08/07 06:21:49;;;;;;;5.10;1.80;;;;;;;;;;5052566;28;20298;-68
2023/08/07 06:24:16;;;;;;;4.63;1.90;;;;;;;;;;5056578;28;20207;-68
2023/08/07 06:26:43;;;;;;;2.57;1.50;;;;;;;;;;5056455;28;20252;-66
2023/08/07 06:29:11;;;;;;;5.57;2.00;;;;;;;;;;5057158;28;20199;-67
2023/08/07 06:31:38;;;;;;;2.37;2.00;;;;;;;;;;5052371;28;20208;-67
2023/08/07 06:34:06;;;;;;;4.40;1.80;;;;;;;;;;5057630;28;20225;-68
2023/08/07 06:36:34;;;;;;;4.30;2.00;;;;;;;;;;5053314;28;20212;-67
2023/08/07 06:39:03;;;;;;;2.67;1.87;;;;;;;;;;5053736;28;20486;-67
2023/08/07 06:41:31;;;;;;;6.17;2.03;;;;;;;;;;5057160;28;20203;-67
2023/08/07 06:43:58;;;;;;;5.33;1.60;;;;;;;;;;5057658;28;20202;-67
2023/08/07 06:46:27;;;;;;;2.27;1.60;;;;;;;;;;5057113;28;20211;-66
2023/08/07 06:48:54;;;;;;;4.37;1.70;;;;;;;;;;5054521;28;20261;-66
2023/08/07 06:51:23;;;;;;;4.50;1.90;;;;;;;;;;5057226;28;20214;-66
2023/08/07 06:53:50;;;;;;;3.97;1.83;;;;;;;;;;5056090;28;20211;-67
2023/08/07 06:56:17;;;;;;;3.13;2.13;;;;;;;;;;5057919;28;20239;-67
2023/08/07 06:58:45;;;;;;;3.90;2.00;;;;;;;;;;5058441;28;20215;-67
2023/08/07 07:01:12;;;;;;;4.13;1.80;;;;;;;;;;5056544;28;20321;-67
2023/08/07 07:03:39;;;;;;;3.00;1.70;;;;;;;;;;5059084;28;20207;-68
2023/08/07 07:06:06;;;;;;;3.80;1.70;;;;;;;;;;5059033;28;20216;-67
2023/08/07 07:08:35;;;;;;;2.33;1.70;;;;;;;;;;5054077;28;20217;-67
2023/08/07 07:11:02;;;;;;;4.20;1.80;;;;;;;;;;5052886;28;20199;-67
2023/08/07 07:13:29;;;;;;;3.53;1.90;;;;;;;;;;5051703;28;20218;-67
2023/08/07 07:15:57;;;;;;;2.63;1.80;;;;;;;;;;5051120;28;20211;-67
2023/08/07 07:18:24;;;;;;;2.93;1.90;;;;;;;;;;5051984;28;20211;-66
2023/08/07 07:20:58;;;;;;;4.40;1.77;;;;;;;;;;5051610;28;20234;-66
2023/08/07 07:23:25;;;;;;;4.17;1.80;;;;;;;;;;5060018;28;20236;-67
2023/08/07 07:25:54;;;;;;;3.13;1.70;;;;;;;;;;5050309;28;20210;-66
2023/08/07 07:28:21;;;;;;;6.03;1.80;;;;;;;;;;5055208;28;20213;-66
2023/08/07 07:30:48;;;;;;;2.57;1.73;;;;;;;;;;5052911;28;20214;-66
2023/08/07 07:33:15;;;;;;;2.43;1.67;;;;;;;;;;5051700;28;20212;-66
2023/08/07 07:35:43;;;;;;;3.10;1.60;;;;;;;;;;5051548;28;20217;-66
2023/08/07 07:38:10;;;;;;;4.20;1.70;;;;;;;;;;5053302;28;20210;-67
2023/08/07 07:40:37;;;;;;;2.87;1.40;;;;;;;;;;5058170;28;20263;-67
2023/08/07 07:43:06;;;;;;;6.13;2.00;;;;;;;;;;5050791;28;20211;-67
2023/08/07 07:45:33;;;;;;;2.40;1.50;;;;;;;;;;5059902;28;20233;-67
2023/08/07 07:48:00;;;;;;;4.40;1.90;;;;;;;;;;5061477;28;20203;-66
2023/08/07 07:50:28;;;;;;;2.30;1.73;;;;;;;;;;5060117;28;20208;-66
2023/08/07 07:52:55;;;;;;;2.13;1.67;;;;;;;;;;5051043;28;20207;-66
2023/08/07 07:55:22;;;;;;;3.90;1.48;;;;;;;;;;5051136;28;20215;-67
2023/08/07 07:57:49;;;;;;;4.30;1.50;;;;;;;;;;5055922;28;20218;-66
2023/08/07 08:00:18;;;;;;;2.45;1.65;;;;;;;;;;5058941;28;20238;-67
2023/08/07 08:02:46;;;;;;;7.22;1.90;;;;;;;;;;5060847;28;20203;-66
2023/08/07 08:05:15;;;;;;;4.30;1.60;;;;;;;;;;5060917;28;20214;-66
2023/08/07 08:07:42;;;;;;;3.63;1.73;;;;;;;;;;5064804;28;20210;-66
2023/08/07 08:10:10;;;;;;;2.13;1.45;;;;;;;;;;5064831;28;20211;-66
2023/08/07 08:12:37;;;;;;;2.75;1.60;;;;;;;;;;5066628;28;20215;-67
2023/08/07 08:15:05;;;;;;;2.28;1.40;;;;;;;;;;5067424;28;20215;-65
2023/08/07 08:17:33;;;;;;;3.85;1.50;;;;;;;;;;5064956;28;20207;-67
2023/08/07 08:20:00;;;;;;;5.57;2.00;;;;;;;;;;5054911;28;20227;-66
2023/08/07 08:22:27;;;;;;;3.15;1.50;;;;;;;;;;5057398;28;20213;-66
2023/08/07 08:24:55;;;;;;;1.50;1.38;;;;;;;;;;5068051;28;20212;-66
2023/08/07 08:27:22;;;;;;;1.58;1.33;;;;;;;;;;5068230;28;20229;-67
2023/08/07 08:29:50;;;;;;;2.63;1.52;;;;;;;;;;5064427;28;20199;-68
2023/08/07 08:32:17;;;;;;;2.80;1.40;;;;;;;;;;5057894;28;20202;-73
2023/08/07 08:34:45;;;;;;;2.65;1.40;;;;;;;;;;5052211;28;20211;-73
2023/08/07 08:37:12;;;;;;;2.97;1.60;;;;;;;;;;5052032;28;20207;-73
2023/08/07 08:39:40;;;;;;;2.65;1.50;;;;;;;;;;5055112;28;20214;-73
2023/08/07 08:42:07;;;;;;;2.72;1.33;;;;;;;;;;5058013;28;20217;-72
2023/08/07 08:44:38;;;;;;;3.20;1.90;;;;;;;;;;5068895;28;20218;-72
2023/08/07 08:47:06;;;;;;;1.58;1.20;;;;;;;;;;5068947;28;20293;-74
2023/08/07 08:49:36;;;;;;;1.85;1.40;;;;;;;;;;5068807;28;20365;-73
2023/08/07 08:52:05;;;;;;;2.10;1.20;;;;;;;;;;5066977;28;20215;-72
2023/08/07 08:54:34;;;;;;;2.25;1.58;;;;;;;;;;5069887;28;20207;-72
2023/08/07 08:57:01;;;;;;;2.53;1.67;;;;;;;;;;5068214;28;20239;-71
2023/08/07 08:59:29;;;;;;;2.30;1.50;;;;;;;;;;5069613;28;20203;-73
2023/08/07 09:01:56;;;;;;;3.83;1.63;;;;;;;;;;5057585;28;20614;-73
2023/08/07 09:04:23;;;;;;;1.70;1.40;;;;;;;;;;5053925;28;20214;-72
2023/08/07 09:06:51;;;;;;;1.80;1.40;;;;;;;;;;5060581;28;20206;-71
2023/08/07 09:09:21;;;;;;;3.03;1.30;;;;;;;;;;5066823;28;20205;-72
2023/08/07 09:11:49;;;;;;;1.98;1.20;;;;;;;;;;5070482;28;20217;-74
2023/08/07 09:14:17;;;;;;;1.52;1.13;;;;;;;;;;5062523;28;20215;-73
2023/08/07 09:16:45;;;;;;;2.28;1.20;;;;;;;;;;5050509;28;20213;-73
2023/08/07 09:19:13;;;;;;;2.80;1.20;;;;;;;;;;5053809;28;20218;-74
2023/08/07 09:21:40;;;;;;;1.40;1.30;;;;;;;;;;5054488;28;20232;-73
2023/08/07 09:24:07;;;;;;;3.42;1.55;;;;;;;;;;5067098;28;20218;-71
2023/08/07 09:26:36;;;;;;;2.72;1.58;;;;;;;;;;5058619;28;20235;-71
2023/08/07 09:29:03;;;;;;;2.03;1.27;;;;;;;;;;5065458;28;20204;-72
2023/08/07 09:31:32;;;;;;;2.88;1.30;;;;;;;;;;5053294;28;20244;-71
2023/08/07 09:34:04;;;;;;;2.47;1.40;;;;;;;;;;5053781;28;20207;-71
2023/08/07 09:36:32;;;;;;;4.00;1.52;;;;;;;;;;5055823;28;20218;-70
2023/08/07 09:39:02;;;;;;;2.17;1.27;;;;;;;;;;5072204;28;20547;-71
2023/08/07 09:41:30;;;;;;;2.75;1.63;;;;;;;;;;5070775;28;20234;-71
2023/08/07 09:43:59;;;;;;;1.85;1.40;;;;;;;;;;5057122;28;20207;-70
2023/08/07 09:46:27;;;;;;;3.17;1.27;;;;;;;;;;5053435;28;20215;-71
2023/08/07 09:48:59;;;;;;;3.08;1.33;;;;;;;;;;5053721;28;20222;-71
2023/08/07 09:51:26;;;;;;;1.65;1.40;;;;;;;;;;5053519;28;20220;-71
2023/08/07 09:53:54;;;;;;;1.83;1.30;;;;;;;;;;5053776;28;20214;-71
2023/08/07 09:56:21;;;;;;;2.40;1.70;;;;;;;;;;5067543;28;20238;-71
2023/08/07 09:58:49;;;;;;;3.30;1.73;;;;;;;;;;5053455;28;20207;-71
2023/08/07 10:01:18;;;;;;;1.17;1.10;;;;;;;;;;5052075;28;20257;-69
2023/08/07 10:03:46;;;;;;;1.52;1.10;;;;;;;;;;5053374;28;20207;-70
2023/08/07 10:06:13;;;;;;;2.17;1.10;;;;;;;;;;5053174;28;20209;-71
2023/08/07 10:08:42;;;;;;;2.50;1.38;;;;;;;;;;5053155;28;20211;-71
2023/08/07 10:11:10;;;;;;;1.88;1.40;;;;;;;;;;5053087;28;20237;-71
2023/08/07 10:13:38;;;;;;;1.40;1.30;;;;;;;;;;5054035;28;20211;-71
2023/08/07 10:16:06;;;;;;;1.40;1.30;;;;;;;;;;5054119;28;20217;-70
2023/08/07 10:18:35;;;;;;;1.67;1.30;;;;;;;;;;5053196;28;20218;-71
2023/08/07 10:21:03;;;;;;;1.40;1.30;;;;;;;;;;5052823;28;20254;-70
2023/08/07 10:23:31;;;;;;;3.00;1.90;;;;;;;;;;5052489;28;20207;-70
2023/08/07 10:25:58;;;;;;;1.77;1.67;;;;;;;;;;5052669;28;20211;-70
2023/08/07 10:28:26;;;;;;;4.68;1.55;;;;;;;;;;5052919;28;20250;-70
2023/08/07 10:30:53;;;;;;;1.40;1.20;;;;;;;;;;5052362;28;20201;-71
2023/08/07 10:33:21;;;;;;;3.08;1.20;;;;;;;;;;5051602;28;20221;-71
2023/08/07 10:35:50;;;;;;;1.40;1.30;;;;;;;;;;5052794;28;20208;-71
2023/08/07 10:38:19;;;;;;;1.58;1.40;;;;;;;;;;5053164;28;20320;-70
2023/08/07 10:41:03;;;;;;;4.00;1.40;;;;;;;;;;5055873;28;20258;-71
2023/08/07 10:43:31;;;;;;;1.30;1.20;;;;;;;;;;5054890;28;20268;-71
2023/08/07 10:46:05;;;;;;;2.33;1.25;;;;;;;;;;5055566;28;20210;-69
2023/08/07 10:48:39;;;;;;;1.50;1.40;;;;;;;;;;5054090;28;20219;-71
2023/08/07 10:51:08;;;;;;;1.40;1.30;;;;;;;;;;5053981;28;20206;-70
2023/08/07 10:53:35;;;;;;;1.50;1.15;;;;;;;;;;5052368;28;20203;-66
2023/08/07 10:56:03;;;;;;;2.45;1.40;;;;;;;;;;5054697;28;20239;-64
2023/08/07 10:58:31;;;;;;;3.17;1.38;;;;;;;;;;5056452;28;20211;-64
2023/08/07 11:01:13;;;;;;;2.60;1.40;;;;;;;;;;5054213;28;20227;-66
2023/08/07 11:03:42;;;;;;;1.95;1.30;;;;;;;;;;5051310;28;20239;-66
2023/08/07 11:06:12;;;;;;;1.45;1.20;;;;;;;;;;5055552;28;20203;-65
2023/08/07 11:08:39;;;;;;;2.85;1.55;;;;;;;;;;5055639;28;20212;-64
2023/08/07 11:11:07;;;;;;;2.05;1.38;;;;;;;;;;5054759;28;20208;-66
2023/08/07 11:13:34;;;;;;;2.25;1.58;;;;;;;;;;5050574;28;20217;-65
2023/08/07 11:16:02;;;;;;;2.60;1.60;;;;;;;;;;5057019;28;20207;-64
2023/08/07 11:18:29;;;;;;;3.08;1.30;;;;;;;;;;5055582;28;20220;-66
2023/08/07 11:20:56;;;;;;;1.45;1.35;;;;;;;;;;5058291;28;20227;-65
2023/08/07 11:23:27;;;;;;;1.65;1.27;;;;;;;;;;5058092;28;20211;-65
2023/08/07 11:25:54;;;;;;;1.40;1.20;;;;;;;;;;5053129;28;20211;-65
2023/08/07 11:28:21;;;;;;;1.58;1.40;;;;;;;;;;5058670;28;20221;-64
2023/08/07 11:30:50;;;;;;;2.10;1.50;;;;;;;;;;5051901;28;20230;-65
2023/08/07 11:33:19;;;;;;;4.28;1.20;;;;;;;;;;5051975;28;20211;-66
2023/08/07 11:35:46;;;;;;;1.30;1.20;;;;;;;;;;5051766;28;20231;-64
2023/08/07 11:38:13;;;;;;;2.15;1.48;;;;;;;;;;5058918;28;20202;-65
2023/08/07 11:40:42;;;;;;;1.38;1.27;;;;;;;;;;5054945;28;20217;-65
2023/08/07 11:43:09;;;;;;;1.60;1.50;;;;;;;;;;5050627;28;20211;-63
2023/08/07 11:45:36;;;;;;;1.40;1.30;;;;;;;;;;5059796;28;20210;-64
2023/08/07 11:48:04;;;;;;;2.08;1.38;;;;;;;;;;5059931;28;20212;-65
2023/08/07 11:50:31;;;;;;;1.30;1.20;;;;;;;;;;5058169;28;20217;-65
2023/08/07 11:53:00;;;;;;;1.25;1.20;;;;;;;;;;5049125;28;20371;-64
2023/08/07 11:55:30;;;;;;;1.48;1.38;;;;;;;;;;5051657;28;20276;-65
2023/08/07 11:57:58;;;;;;;2.13;1.30;;;;;;;;;;5051687;28;20249;-64
2023/08/07 12:00:27;;;;;;;2.28;1.55;;;;;;;;;;5051360;28;20211;-65
2023/08/07 12:02:55;;;;;;;2.05;1.50;;;;;;;;;;5051412;28;20227;-70
2023/08/07 12:05:23;;;;;;;1.88;1.40;;;;;;;;;;5050751;28;20203;-69
2023/08/07 12:07:50;;;;;;;2.20;1.50;;;;;;;;;;5051032;28;20215;-69
2023/08/07 12:10:18;;;;;;;2.45;1.45;;;;;;;;;;5051450;28;20218;-69
2023/08/07 12:12:45;;;;;;;3.72;1.52;;;;;;;;;;5059492;28;20203;-69
2023/08/07 12:15:13;;;;;;;3.13;1.38;;;;;;;;;;5052110;28;20218;-70
2023/08/07 12:17:40;;;;;;;1.25;1.15;;;;;;;;;;5049647;28;20513;-69
2023/08/07 12:20:10;;;;;;;1.60;1.50;;;;;;;;;;5050496;28;20207;-70
2023/08/07 12:22:38;;;;;;;1.55;1.40;;;;;;;;;;5051381;28;20267;-69
2023/08/07 12:25:06;;;;;;;3.28;1.40;;;;;;;;;;5051285;28;20218;-70
2023/08/07 12:27:33;;;;;;;1.50;1.40;;;;;;;;;;5051295;28;20290;-70
2023/08/07 12:30:00;;;;;;;1.45;1.35;;;;;;;;;;5051013;28;20212;-69
2023/08/07 12:32:28;;;;;;;1.58;1.48;;;;;;;;;;5048667;28;20211;-69
2023/08/07 12:34:56;;;;;;;1.55;1.30;;;;;;;;;;5059877;28;20215;-70
2023/08/07 12:37:23;;;;;;;1.60;1.35;;;;;;;;;;5051271;28;20211;-70
2023/08/07 12:39:50;;;;;;;1.70;1.25;;;;;;;;;;5050944;28;20230;-69
2023/08/07 12:42:17;;;;;;;2.30;1.50;;;;;;;;;;5048639;28;20224;-70
2023/08/07 12:44:45;;;;;;;2.30;1.23;;;;;;;;;;5048563;28;20211;-69
2023/08/07 12:47:12;;;;;;;1.30;1.20;;;;;;;;;;5048149;28;20211;-69
2023/08/07 12:49:41;;;;;;;1.38;1.33;;;;;;;;;;5050318;28;20207;-71
2023/08/07 12:52:08;;;;;;;1.42;1.33;;;;;;;;;;5064301;28;20203;-70
2023/08/07 12:54:35;;;;;;;1.67;1.27;;;;;;;;;;5068101;28;20217;-71
2023/08/07 12:57:02;;;;;;;4.05;1.30;;;;;;;;;;5064460;28;20239;-71
2023/08/07 12:59:29;;;;;;;2.85;1.63;;;;;;;;;;5054446;28;20207;-70
2023/08/07 13:01:57;;;;;;;1.80;1.50;;;;;;;;;;5054212;28;20231;-69
2023/08/07 13:04:24;;;;;;;3.30;1.23;;;;;;;;;;5066796;28;20294;-71
2023/08/07 13:06:52;;;;;;;1.40;1.30;;;;;;;;;;5063612;28;20211;-69
2023/08/07 13:09:20;;;;;;;1.52;1.30;;;;;;;;;;5067334;28;20218;-71
2023/08/07 13:11:47;;;;;;;1.40;1.30;;;;;;;;;;5068863;28;20266;-70
2023/08/07 13:14:14;;;;;;;1.42;1.33;;;;;;;;;;5065948;28;20211;-63
2023/08/07 13:16:41;;;;;;;1.33;1.20;;;;;;;;;;5059379;28;20229;-64
2023/08/07 13:19:08;;;;;;;1.27;1.17;;;;;;;;;;5054214;28;20213;-64
2023/08/07 13:21:36;;;;;;;3.35;1.30;;;;;;;;;;5053789;28;20231;-65
2023/08/07 13:24:05;;;;;;;1.20;1.13;;;;;;;;;;5052214;28;20218;-64
2023/08/07 13:26:32;;;;;;;1.60;1.30;;;;;;;;;;5053723;28;20235;-65
2023/08/07 13:28:59;;;;;;;2.33;1.40;;;;;;;;;;5053358;28;20203;-65
2023/08/07 13:31:26;;;;;;;1.55;1.40;;;;;;;;;;5054320;28;20203;-65
2023/08/07 13:33:54;;;;;;;2.75;1.30;;;;;;;;;;5053747;28;20214;-64
2023/08/07 13:36:21;;;;;;;1.45;1.35;;;;;;;;;;5053783;28;20211;-64
2023/08/07 13:38:48;;;;;;;1.95;1.33;;;;;;;;;;5063354;28;20221;-64
2023/08/07 13:41:17;;;;;;;1.48;1.30;;;;;;;;;;5066714;28;20213;-64
2023/08/07 13:43:44;;;;;;;1.30;1.20;;;;;;;;;;5067894;28;20233;-63
2023/08/07 13:46:11;;;;;;;1.40;1.30;;;;;;;;;;5067227;28;20203;-63
2023/08/07 13:48:38;;;;;;;3.10;1.42;;;;;;;;;;5053779;28;20214;-63
2023/08/07 13:51:08;;;;;;;2.55;1.30;;;;;;;;;;5070943;28;20217;-63
2023/08/07 13:53:35;;;;;;;1.65;1.27;;;;;;;;;;5061338;28;20203;-62
2023/08/07 13:56:02;;;;;;;2.15;1.45;;;;;;;;;;5049427;28;20243;-63
2023/08/07 13:58:30;;;;;;;1.40;1.30;;;;;;;;;;5057432;28;20222;-65
2023/08/07 14:00:58;;;;;;;3.70;1.30;;;;;;;;;;5056937;28;20214;-64
2023/08/07 14:03:25;;;;;;;1.20;1.08;;;;;;;;;;5053068;28;20259;-64
2023/08/07 14:05:52;;;;;;;2.83;1.20;;;;;;;;;;5057719;28;20210;-64
2023/08/07 14:08:19;;;;;;;1.58;1.48;;;;;;;;;;5072081;28;20240;-64
2023/08/07 14:10:47;;;;;;;1.45;1.15;;;;;;;;;;5068842;28;20206;-65
2023/08/07 14:13:14;;;;;;;1.40;1.30;;;;;;;;;;5072568;28;20206;-64
2023/08/07 14:15:42;;;;;;;2.85;1.40;;;;;;;;;;5058938;28;20211;-63
2023/08/07 14:18:10;;;;;;;1.40;1.30;;;;;;;;;;5052900;28;20241;-63
2023/08/07 14:20:38;;;;;;;1.67;1.30;;;;;;;;;;5053133;28;20211;-63
2023/08/07 14:23:05;;;;;;;1.60;1.27;;;;;;;;;;5052751;28;20227;-69
2023/08/07 14:25:32;;;;;;;2.30;1.40;;;;;;;;;;5053429;28;20210;-64
2023/08/07 14:27:59;;;;;;;1.25;1.15;;;;;;;;;;5053733;28;20211;-63
2023/08/07 14:30:27;;;;;;;1.73;1.30;;;;;;;;;;5052814;28;20213;-63
2023/08/07 14:32:55;;;;;;;1.42;1.30;;;;;;;;;;5052069;28;20226;-64
2023/08/07 14:35:22;;;;;;;1.30;1.20;;;;;;;;;;5052338;28;20207;-65
2023/08/07 14:37:49;;;;;;;2.58;1.27;;;;;;;;;;5052975;28;20215;-64
2023/08/07 14:40:16;;;;;;;2.05;1.55;;;;;;;;;;5054171;28;20214;-64
2023/08/07 14:42:44;;;;;;;1.85;1.30;;;;;;;;;;5057133;28;20242;-64
2023/08/07 14:45:11;;;;;;;1.33;1.23;;;;;;;;;;5054828;28;20203;-64